createdAt,value
2023-04-18T00:01:15.535Z,98.89
2023-04-18T00:04:19.234Z,98.89
2023-04-18T00:07:21.677Z,99.48
2023-04-18T00:10:24.295Z,97.83
2023-04-18T00:13:28.424Z,100.00
2023-04-18T00:16:33.129Z,100.00
2023-04-18T00:19:37.640Z,98.99
2023-04-18T00:22:43.901Z,100.00
2023-04-18T00:25:46.124Z,100.00
2023-04-18T00:28:48.863Z,100.00
2023-04-18T00:31:52.874Z,100.00
2023-04-18T00:34:55.359Z,100.00
2023-04-18T00:37:58.325Z,100.00
2023-04-18T00:41:00.809Z,100.00
2023-04-18T00:44:03.048Z,100.00
2023-04-18T00:47:05.946Z,100.00
2023-04-18T00:50:09.827Z,100.00
2023-04-18T00:53:13.450Z,100.00
2023-04-18T00:56:16.169Z,99.85
2023-04-18T00:59:18.964Z,99.33
2023-04-18T01:02:21.318Z,100.00
2023-04-18T01:05:24.050Z,99.74
2023-04-18T01:08:27.797Z,100.00
2023-04-18T01:11:32.826Z,100.00
2023-04-18T01:14:35.064Z,99.66
2023-04-18T01:17:39.651Z,99.24
2023-04-18T01:20:45.826Z,98.52
2023-04-18T01:23:49.044Z,99.87
2023-04-18T01:26:51.381Z,99.22
2023-04-18T01:29:54.002Z,99.02
2023-04-18T01:32:56.372Z,98.98
2023-04-18T01:36:01.525Z,100.00
2023-04-18T01:39:06.645Z,100.00
2023-04-18T01:42:09.181Z,99.73
2023-04-18T01:45:13.168Z,98.45
2023-04-18T01:48:15.840Z,98.21
2023-04-18T01:51:18.043Z,99.58
2023-04-18T01:54:20.639Z,100.00
2023-04-18T01:57:23.050Z,100.00
2023-04-18T02:00:25.980Z,99.37
2023-04-18T02:03:28.540Z,99.29
2023-04-18T02:06:31.283Z,100.00
2023-04-18T02:09:35.102Z,100.00
2023-04-18T02:12:38.886Z,100.00
2023-04-18T02:15:41.395Z,100.00
2023-04-18T02:18:43.914Z,100.00
2023-04-18T02:21:46.131Z,99.61
2023-04-18T02:24:49.975Z,97.97
2023-04-18T02:27:52.958Z,97.01
2023-04-18T02:30:55.923Z,97.47
2023-04-18T02:33:59.231Z,95.25
2023-04-18T02:37:01.839Z,95.00
2023-04-18T02:40:05.716Z,94.75
2023-04-18T02:43:09.109Z,97.08
2023-04-18T02:46:12.108Z,95.40
2023-04-18T02:49:14.747Z,95.91
2023-04-18T02:52:17.137Z,95.34
2023-04-18T02:55:19.738Z,96.90
2023-04-18T02:58:22.733Z,100.00
2023-04-18T03:01:26.590Z,100.00
2023-04-18T03:04:29.277Z,100.00
2023-04-18T03:07:32.317Z,100.00
2023-04-18T03:10:34.955Z,100.00
2023-04-18T03:13:37.760Z,100.00
2023-04-18T03:16:40.665Z,100.00
2023-04-18T03:19:45.426Z,100.00
2023-04-18T03:22:48.045Z,100.00
2023-04-18T03:25:52.023Z,100.00
2023-04-18T03:28:54.617Z,100.00
2023-04-18T03:31:57.084Z,100.00
2023-04-18T03:34:59.602Z,100.00
2023-04-18T03:38:02.159Z,100.00
2023-04-18T03:41:04.885Z,100.00
2023-04-18T03:44:07.721Z,100.00
2023-04-18T03:47:11.251Z,100.00
2023-04-18T03:50:15.286Z,100.00
2023-04-18T03:53:18.201Z,100.00
2023-04-18T03:56:20.935Z,100.00
2023-04-18T03:59:23.423Z,100.00
2023-04-18T04:02:26.408Z,100.00
2023-04-18T04:05:29.367Z,100.00
2023-04-18T04:08:32.579Z,100.00
2023-04-18T04:11:35.110Z,100.00
2023-04-18T04:14:38.115Z,100.00
2023-04-18T04:17:41.091Z,100.00
2023-04-18T04:20:46.221Z,99.98
2023-04-18T04:23:49.052Z,99.50
2023-04-18T04:26:53.258Z,100.00
2023-04-18T04:29:56.835Z,100.00
2023-04-18T04:32:59.759Z,100.00
2023-04-18T04:36:02.410Z,100.00
2023-04-18T04:39:05.590Z,100.00
2023-04-18T04:42:09.668Z,100.00
2023-04-18T04:45:13.810Z,100.00
2023-04-18T04:48:16.749Z,100.00
2023-04-18T04:51:18.956Z,100.00
2023-04-18T04:54:21.546Z,100.00
2023-04-18T04:57:24.048Z,100.00
2023-04-18T05:00:27.240Z,100.00
2023-04-18T05:03:29.588Z,100.00
2023-04-18T05:06:32.462Z,100.00
2023-04-18T05:09:34.653Z,100.00
2023-04-18T05:12:40.066Z,100.00
2023-04-18T05:15:42.668Z,100.00
2023-04-18T05:18:45.127Z,100.00
2023-04-18T05:21:47.356Z,100.00
2023-04-18T05:24:49.783Z,100.00
2023-04-18T05:27:52.079Z,100.00
2023-04-18T05:31:01.032Z,100.00
2023-04-18T05:34:03.528Z,100.00
2023-04-18T05:37:06.415Z,100.00
2023-04-18T05:40:09.148Z,100.00
2023-04-18T05:43:11.827Z,100.00
2023-04-18T05:46:14.451Z,100.00
2023-04-18T05:49:17.092Z,100.00
2023-04-18T05:52:19.366Z,100.00
2023-04-18T05:55:21.976Z,100.00
2023-04-18T05:58:24.162Z,100.00
2023-04-18T06:01:27.511Z,97.82
2023-04-18T06:04:30.166Z,97.85
2023-04-18T06:07:32.779Z,92.55
2023-04-18T06:10:37.665Z,92.09
2023-04-18T06:13:41.702Z,90.38
2023-04-18T06:16:46.831Z,88.48
2023-04-18T06:19:49.603Z,87.89
2023-04-18T06:22:52.360Z,88.11
2023-04-18T06:25:54.892Z,87.11
2023-04-18T06:28:57.469Z,84.45
2023-04-18T06:32:00.007Z,87.56
2023-04-18T06:35:02.664Z,88.53
2023-04-18T06:38:04.803Z,82.75
2023-04-18T06:41:07.302Z,82.62
2023-04-18T06:44:09.548Z,79.98
2023-04-18T06:47:12.344Z,76.49
2023-04-18T06:50:15.150Z,70.65
2023-04-18T06:53:17.890Z,68.20
2023-04-18T06:56:21.170Z,56.27
2023-04-18T06:59:23.785Z,55.79
2023-04-18T07:02:26.180Z,50.77
2023-04-18T07:05:28.852Z,50.26
2023-04-18T07:08:31.192Z,50.82
2023-04-18T07:11:34.106Z,57.60
2023-04-18T07:14:36.312Z,61.15
2023-04-18T07:17:39.437Z,62.36
2023-04-18T07:20:41.776Z,59.59
2023-04-18T07:23:44.262Z,63.28
2023-04-18T07:26:46.465Z,63.73
2023-04-18T07:29:48.894Z,61.97
2023-04-18T07:32:51.312Z,64.63
2023-04-18T07:35:53.840Z,62.17
2023-04-18T07:38:55.967Z,60.58
2023-04-18T07:41:58.891Z,62.13
2023-04-18T07:45:01.114Z,63.58
2023-04-18T07:48:04.252Z,62.29
2023-04-18T07:51:06.526Z,60.90
2023-04-18T07:54:11.075Z,59.50
2023-04-18T07:57:13.389Z,61.63
2023-04-18T08:00:17.472Z,61.83
2023-04-18T08:03:20.211Z,61.53
2023-04-18T08:06:23.197Z,57.49
2023-04-18T08:09:26.110Z,57.95
2023-04-18T08:12:28.309Z,58.77
2023-04-18T08:15:33.039Z,57.69
2023-04-18T08:18:35.886Z,57.32
2023-04-18T08:21:39.856Z,56.43
2023-04-18T08:25:04.425Z,56.16
2023-04-18T08:28:08.575Z,59.16
2023-04-18T08:31:15.066Z,58.24
2023-04-18T08:34:17.740Z,60.21
2023-04-18T08:37:19.952Z,61.23
2023-04-18T08:40:27.835Z,59.29
2023-04-18T08:43:38.878Z,58.41
2023-04-18T08:46:41.851Z,57.24
2023-04-18T08:49:45.550Z,57.37
2023-04-18T08:52:51.174Z,59.25
2023-04-18T08:55:57.440Z,59.80
2023-04-18T08:59:00.199Z,58.32
2023-04-18T09:02:04.224Z,58.02
2023-04-18T09:05:20.105Z,60.16
2023-04-18T09:08:24.372Z,53.72
2023-04-18T09:11:29.696Z,48.43
2023-04-18T09:14:32.662Z,44.78
2023-04-18T09:17:42.432Z,43.49
2023-04-18T09:20:47.712Z,41.20
2023-04-18T09:23:50.504Z,48.50
2023-04-18T09:26:54.077Z,45.53
2023-04-18T09:29:58.034Z,47.21
2023-04-18T09:33:03.283Z,44.08
2023-04-18T09:36:19.643Z,45.28
2023-04-18T09:39:28.620Z,46.79
2023-04-18T09:42:36.208Z,41.54
2023-04-18T09:45:39.023Z,42.92
2023-04-18T09:48:41.945Z,43.47
2023-04-18T09:51:46.210Z,42.30
2023-04-18T09:54:53.784Z,41.46
2023-04-18T09:57:57.164Z,44.54
2023-04-18T10:01:00.263Z,47.34
2023-04-18T10:04:06.308Z,48.26
2023-04-18T10:07:08.925Z,46.67
2023-04-18T10:10:12.028Z,48.67
2023-04-18T10:13:14.730Z,45.74
2023-04-18T10:16:18.143Z,43.14
2023-04-18T10:19:23.266Z,41.00
2023-04-18T10:22:27.495Z,45.32
2023-04-18T10:25:38.853Z,42.31
2023-04-18T10:28:58.044Z,41.95
2023-04-18T10:32:06.204Z,43.90
2023-04-18T10:35:10.562Z,42.28
2023-04-18T10:38:23.255Z,42.34
2023-04-18T10:41:27.893Z,40.95
2023-04-18T10:44:30.041Z,37.80
2023-04-18T10:47:32.746Z,36.89
2023-04-18T10:50:55.034Z,36.59
2023-04-18T10:54:00.875Z,38.58
2023-04-18T10:57:04.479Z,39.59
2023-04-18T11:00:13.732Z,36.93
2023-04-18T11:03:16.263Z,35.73
2023-04-18T11:06:19.027Z,36.01
2023-04-18T11:12:36.104Z,32.92
2023-04-18T11:21:52.635Z,27.42
2023-04-18T11:25:00.129Z,28.64
2023-04-18T11:28:03.967Z,30.28
2023-04-18T11:31:06.804Z,33.38
2023-04-18T11:34:09.242Z,34.21
2023-04-18T11:37:15.512Z,37.41
2023-04-18T11:40:17.835Z,39.88
2023-04-18T11:43:22.658Z,37.81
2023-04-18T11:46:37.864Z,39.02
2023-04-18T11:49:40.621Z,37.32
2023-04-18T11:52:43.090Z,38.32
2023-04-18T11:55:55.857Z,38.73
2023-04-18T11:58:58.235Z,40.14
2023-04-18T12:02:15.263Z,42.03
2023-04-18T12:05:27.624Z,38.45
2023-04-18T12:08:31.727Z,39.96
2023-04-18T12:11:34.664Z,37.96
2023-04-18T12:14:36.844Z,40.91
2023-04-18T12:17:39.456Z,43.11
2023-04-18T12:20:52.378Z,39.44
2023-04-18T12:23:55.533Z,37.95
2023-04-18T12:26:58.581Z,38.09
2023-04-18T12:30:00.882Z,37.95
2023-04-18T12:33:04.206Z,37.00
2023-04-18T12:36:08.554Z,36.20
2023-04-18T12:39:10.802Z,37.46
2023-04-18T12:42:13.669Z,38.66
2023-04-18T12:45:17.469Z,37.30
2023-04-18T12:48:20.228Z,36.48
2023-04-18T12:51:23.221Z,39.04
2023-04-18T12:54:25.807Z,40.34
2023-04-18T12:57:29.441Z,40.19
2023-04-18T13:00:34.227Z,38.03
2023-04-18T13:03:37.325Z,37.08
2023-04-18T13:06:40.413Z,35.35
2023-04-18T13:09:42.716Z,35.38
2023-04-18T13:12:46.474Z,35.66
2023-04-18T13:15:48.764Z,34.99
2023-04-18T13:18:51.244Z,32.39
2023-04-18T13:21:53.392Z,31.28
2023-04-18T13:24:55.911Z,32.12
2023-04-18T13:27:58.534Z,32.27
2023-04-18T13:31:01.228Z,33.35
2023-04-18T13:34:03.511Z,32.39
2023-04-18T13:37:06.586Z,33.23
2023-04-18T13:40:09.435Z,33.32
2023-04-18T13:43:13.072Z,33.32
2023-04-18T13:46:15.600Z,33.53
2023-04-18T13:49:18.048Z,33.62
2023-04-18T13:52:20.357Z,33.49
2023-04-18T13:55:22.974Z,33.82
2023-04-18T13:58:25.650Z,33.17
2023-04-18T14:01:28.418Z,33.35
2023-04-18T14:04:32.736Z,31.29
2023-04-18T14:07:36.263Z,31.73
2023-04-18T14:10:38.955Z,33.04
2023-04-18T14:13:41.295Z,32.51
2023-04-18T14:16:43.967Z,31.41
2023-04-18T14:19:46.188Z,30.07
2023-04-18T14:22:52.322Z,30.55
2023-04-18T14:25:55.575Z,29.82
2023-04-18T14:28:58.162Z,30.05
2023-04-18T14:32:00.750Z,30.81
2023-04-18T14:35:05.950Z,31.06
2023-04-18T14:38:08.249Z,33.75
2023-04-18T14:41:11.145Z,30.55
2023-04-18T14:44:14.585Z,30.22
2023-04-18T14:47:18.534Z,30.90
2023-04-18T14:50:20.826Z,30.40
2023-04-18T14:53:23.780Z,31.28
2023-04-18T14:56:26.639Z,31.51
2023-04-18T14:59:29.153Z,31.31
2023-04-18T15:02:31.603Z,30.94
2023-04-18T15:05:34.957Z,32.15
2023-04-18T15:08:37.223Z,32.25
2023-04-18T15:11:39.758Z,33.09
2023-04-18T15:14:41.979Z,32.15
2023-04-18T15:17:44.480Z,32.56
2023-04-18T15:20:47.412Z,31.82
2023-04-18T15:23:49.869Z,32.70
2023-04-18T15:26:52.265Z,32.96
2023-04-18T15:29:57.442Z,32.62
2023-04-18T15:32:59.688Z,34.68
2023-04-18T15:36:02.208Z,33.53
2023-04-18T15:39:05.832Z,33.57
2023-04-18T15:42:08.358Z,33.75
2023-04-18T15:45:11.620Z,34.55
2023-04-18T15:48:14.010Z,35.20
2023-04-18T15:51:16.086Z,35.42
2023-04-18T15:54:18.558Z,35.25
2023-04-18T15:57:21.412Z,35.44
2023-04-18T16:00:24.423Z,36.09
2023-04-18T16:03:27.228Z,36.20
2023-04-18T16:06:31.229Z,36.49
2023-04-18T16:09:34.042Z,37.37
2023-04-18T16:12:37.712Z,36.12
2023-04-18T16:15:41.864Z,36.49
2023-04-18T16:18:44.116Z,36.01
2023-04-18T16:21:48.780Z,36.04
2023-04-18T16:24:50.923Z,36.36
2023-04-18T16:27:53.805Z,36.09
2023-04-18T16:30:56.301Z,36.59
2023-04-18T16:33:58.859Z,37.11
2023-04-18T16:37:01.196Z,38.26
2023-04-18T16:40:08.470Z,37.96
2023-04-18T16:43:10.656Z,39.30
2023-04-18T16:46:13.736Z,38.11
2023-04-18T16:49:16.151Z,37.21
2023-04-18T16:52:18.794Z,37.17
2023-04-18T16:55:21.075Z,37.77
2023-04-18T16:58:23.694Z,36.59
2023-04-18T17:01:26.023Z,37.10
2023-04-18T17:04:29.152Z,36.73
2023-04-18T17:07:31.448Z,37.19
2023-04-18T17:10:34.503Z,37.01
2023-04-18T17:13:37.145Z,38.11
2023-04-18T17:16:41.039Z,37.73
2023-04-18T17:19:43.350Z,38.04
2023-04-18T17:22:45.906Z,38.19
2023-04-18T17:25:48.287Z,38.12
2023-04-18T17:28:50.833Z,38.22
2023-04-18T17:31:53.179Z,38.21
2023-04-18T17:34:56.146Z,38.76
2023-04-18T17:37:58.431Z,39.28
2023-04-18T17:41:02.363Z,39.42
2023-04-18T17:44:05.139Z,39.93
2023-04-18T17:47:07.582Z,40.34
2023-04-18T17:50:11.164Z,40.63
2023-04-18T17:53:15.814Z,40.56
2023-04-18T17:56:18.060Z,41.42
2023-04-18T17:59:20.655Z,41.95
2023-04-18T18:02:28.045Z,42.43
2023-04-18T18:05:30.766Z,42.33
2023-04-18T18:08:32.953Z,43.21
2023-04-18T18:11:35.695Z,43.42
2023-04-18T18:14:38.051Z,44.12
2023-04-18T18:17:40.671Z,43.96
2023-04-18T18:20:43.309Z,44.47
2023-04-18T18:23:45.939Z,44.55
2023-04-18T18:26:50.980Z,44.46
2023-04-18T18:29:54.369Z,45.27
2023-04-18T18:32:59.981Z,46.83
2023-04-18T18:36:02.699Z,46.50
2023-04-18T18:39:05.289Z,46.69
2023-04-18T18:42:07.867Z,47.13
2023-04-18T18:45:11.643Z,46.82
2023-04-18T18:48:15.357Z,46.38
2023-04-18T18:51:19.001Z,46.73
2023-04-18T18:54:21.493Z,46.81
2023-04-18T18:57:23.728Z,46.96
2023-04-18T19:00:26.288Z,46.85
2023-04-18T19:03:29.057Z,46.72
2023-04-18T19:06:32.136Z,46.43
2023-04-18T19:09:36.867Z,46.46
2023-04-18T19:12:39.434Z,46.01
2023-04-18T19:15:41.614Z,47.21
2023-04-18T19:18:47.052Z,47.07
2023-04-18T19:21:50.088Z,46.51
2023-04-18T19:24:52.589Z,43.63
2023-04-18T19:27:54.770Z,43.62
2023-04-18T19:30:57.363Z,43.31
2023-04-18T19:33:59.596Z,43.95
2023-04-18T19:37:02.171Z,44.33
2023-04-18T19:40:04.808Z,43.76
2023-04-18T19:43:07.309Z,43.98
2023-04-18T19:46:09.671Z,44.42
2023-04-18T19:49:12.459Z,45.11
2023-04-18T19:52:14.766Z,44.44
2023-04-18T19:55:17.214Z,44.93
2023-04-18T19:58:44.850Z,45.25
2023-04-18T20:01:47.606Z,45.61
2023-04-18T20:04:50.611Z,43.92
2023-04-18T20:07:52.891Z,45.73
2023-04-18T20:10:56.201Z,45.50
2023-04-18T20:13:58.444Z,44.89
2023-04-18T20:17:00.944Z,44.73
2023-04-18T20:20:04.499Z,44.96
2023-04-18T20:23:07.370Z,44.84
2023-04-18T20:26:09.712Z,44.80
2023-04-18T20:29:12.496Z,44.33
2023-04-18T20:32:14.983Z,44.06
2023-04-18T20:35:17.612Z,44.24
2023-04-18T20:38:20.076Z,44.56
2023-04-18T20:41:24.253Z,44.78
2023-04-18T20:44:26.541Z,44.44
2023-04-18T20:47:29.032Z,44.29
2023-04-18T20:50:31.452Z,43.64
2023-04-18T20:53:34.012Z,44.28
2023-04-18T20:56:36.992Z,44.15
2023-04-18T20:59:39.489Z,44.86
2023-04-18T21:02:41.979Z,44.77
2023-04-18T21:05:45.032Z,45.78
2023-04-18T21:08:47.615Z,46.07
2023-04-18T21:11:50.052Z,46.66
2023-04-18T21:14:52.499Z,45.38
2023-04-18T21:17:55.928Z,46.81
2023-04-18T21:20:58.196Z,47.01
2023-04-18T21:24:01.738Z,47.30
2023-04-18T21:27:04.159Z,46.15
2023-04-18T21:30:07.240Z,46.78
2023-04-18T21:33:09.497Z,49.11
2023-04-18T21:36:11.922Z,47.47
2023-04-18T21:39:14.125Z,48.60
2023-04-18T21:42:16.868Z,48.86
2023-04-18T21:45:19.106Z,48.58
2023-04-18T21:48:21.728Z,49.17
2023-04-18T21:51:23.930Z,49.33
2023-04-18T21:54:26.464Z,50.19
2023-04-18T21:57:28.796Z,50.50
2023-04-18T22:00:31.287Z,50.57
2023-04-18T22:03:34.448Z,49.70
2023-04-18T22:06:36.771Z,51.46
2023-04-18T22:09:39.758Z,51.62
2023-04-18T22:12:42.425Z,52.45
2023-04-18T22:15:45.026Z,51.49
2023-04-18T22:18:48.822Z,51.78
2023-04-18T22:21:51.561Z,50.40
2023-04-18T22:24:53.820Z,50.86
2023-04-18T22:27:56.495Z,51.06
2023-04-18T22:30:58.722Z,52.55
2023-04-18T22:34:01.434Z,51.39
2023-04-18T22:37:03.711Z,51.49
2023-04-18T22:40:07.000Z,51.52
2023-04-18T22:43:09.174Z,50.44
2023-04-18T22:46:11.654Z,51.13
2023-04-18T22:49:14.224Z,51.19
2023-04-18T22:52:16.659Z,50.74
2023-04-18T22:55:19.948Z,50.50
2023-04-18T22:58:22.424Z,51.50
2023-04-18T23:01:24.671Z,50.16
2023-04-18T23:04:30.022Z,50.37
2023-04-18T23:07:32.405Z,50.39
2023-04-18T23:10:35.099Z,50.70
2023-04-18T23:13:37.315Z,51.33
2023-04-18T23:16:41.033Z,50.64
2023-04-18T23:19:45.168Z,50.54
2023-04-18T23:22:50.069Z,50.38
2023-04-18T23:25:52.290Z,49.82
2023-04-18T23:28:54.844Z,49.61
2023-04-18T23:31:57.097Z,49.12
2023-04-18T23:35:04.080Z,48.89
2023-04-18T23:38:06.287Z,49.65
2023-04-18T23:41:08.734Z,49.18
2023-04-18T23:44:10.911Z,49.51
2023-04-18T23:47:13.450Z,49.13
2023-04-18T23:50:15.803Z,49.24
2023-04-18T23:53:19.257Z,49.35
2023-04-18T23:56:23.116Z,48.87
2023-04-18T23:59:25.588Z,49.53
